Time;durP1;ratioP1;P1;durP2;ratioP2;P2;SDS_P1;SDS_P2;PMS_P1;PMS_P2;Temp;Humidity;BMP_temperature;BMP_pressure;BME280_temperature;BME280_humidity;BME280_pressure;Samples;Min_cycle;Max_cycle;Signal;HPM_P1;HPM_P2
2022/12/19 00:00:51;;;;;;;32.87;13.87;;;-3.10;99.90;;;;;;5059628;28;20227;-75
2022/12/19 00:03:40;;;;;;;28.67;12.97;;;-3.00;99.90;;;;;;5038076;28;20230;-74
2022/12/19 00:06:29;;;;;;;29.50;13.67;;;-3.10;99.90;;;;;;5058165;28;20269;-75
2022/12/19 00:09:18;;;;;;;29.93;12.67;;;-3.00;99.90;;;;;;5040934;28;20284;-75
2022/12/19 00:12:06;;;;;;;27.90;12.07;;;-3.00;99.90;;;;;;5055348;28;20229;-75
2022/12/19 00:14:57;;;;;;;30.17;12.97;;;-3.30;99.90;;;;;;5053709;28;20230;-76
2022/12/19 00:17:49;;;;;;;32.80;12.97;;;-3.30;99.90;;;;;;5052508;28;20218;-75
2022/12/19 00:20:38;;;;;;;32.47;13.77;;;-3.40;99.90;;;;;;5058271;28;20236;-75
2022/12/19 00:23:28;;;;;;;31.13;13.63;;;-3.40;99.90;;;;;;5037436;28;20767;-76
2022/12/19 00:26:19;;;;;;;33.63;13.00;;;-3.40;99.90;;;;;;5041175;28;20228;-76
2022/12/19 00:29:09;;;;;;;30.57;12.27;;;-3.40;99.90;;;;;;5039642;28;20217;-75
2022/12/19 00:32:02;;;;;;;29.30;12.20;;;-3.50;99.90;;;;;;5042326;28;20229;-75
2022/12/19 00:34:52;;;;;;;28.83;12.57;;;-3.60;99.90;;;;;;5043192;28;20234;-76
2022/12/19 00:37:41;;;;;;;27.63;13.10;;;-3.50;99.90;;;;;;5055953;28;20217;-74
2022/12/19 00:40:37;;;;;;;31.43;13.23;;;-3.30;99.90;;;;;;5055282;28;20229;-75
2022/12/19 00:43:27;;;;;;;32.80;12.87;;;-3.00;99.90;;;;;;5039788;28;20701;-76
2022/12/19 00:46:16;;;;;;;31.50;13.07;;;-3.10;99.90;;;;;;5039433;28;20221;-76
2022/12/19 00:49:06;;;;;;;30.47;13.50;;;-3.10;99.90;;;;;;5049217;28;20707;-76
2022/12/19 00:51:58;;;;;;;31.00;13.40;;;-3.20;99.90;;;;;;5042663;28;20214;-75
2022/12/19 00:54:47;;;;;;;32.43;13.10;;;-3.20;99.90;;;;;;5038494;28;20226;-76
2022/12/19 00:57:38;;;;;;;29.20;12.50;;;-3.30;99.90;;;;;;5057486;28;20225;-75
2022/12/19 01:00:26;;;;;;;25.90;12.40;;;-3.30;99.90;;;;;;5059914;28;20254;-76
2022/12/19 01:03:16;;;;;;;30.73;12.80;;;-3.20;99.90;;;;;;5041214;28;20256;-76
2022/12/19 01:06:06;;;;;;;27.17;11.97;;;-3.40;99.90;;;;;;5055987;28;20252;-75
2022/12/19 01:08:56;;;;;;;27.33;12.93;;;-3.30;99.90;;;;;;5055219;28;20762;-75
2022/12/19 01:14:53;;;;;;;31.67;12.30;;;-3.30;99.90;;;;;;5059236;28;20226;-76
2022/12/19 01:17:44;;;;;;;33.07;13.33;;;-3.30;99.90;;;;;;5057006;28;20228;-75
2022/12/19 01:20:32;;;;;;;32.60;13.73;;;-3.40;99.90;;;;;;5048248;28;20729;-77
2022/12/19 01:23:21;;;;;;;31.33;12.63;;;-3.40;99.90;;;;;;5040784;28;20235;-77
2022/12/19 01:26:11;;;;;;;31.67;13.33;;;-3.30;99.90;;;;;;5063371;28;20268;-76
2022/12/19 01:29:00;;;;;;;38.30;14.47;;;-3.50;99.90;;;;;;5056347;28;20743;-79
2022/12/19 01:31:49;;;;;;;35.53;13.13;;;-3.30;99.90;;;;;;5045931;28;20250;-75
2022/12/19 01:34:38;;;;;;;32.83;13.27;;;-3.10;99.90;;;;;;5043893;28;20229;-75
2022/12/19 01:37:26;;;;;;;32.10;13.63;;;-3.30;99.90;;;;;;5058108;28;20236;-76
2022/12/19 01:40:18;;;;;;;37.07;14.60;;;-3.30;99.90;;;;;;5051874;28;20602;-76
2022/12/19 01:43:13;;;;;;;36.87;14.47;;;-3.40;99.90;;;;;;5042214;28;20224;-76
2022/12/19 01:46:04;;;;;;;35.47;14.07;;;-3.30;99.90;;;;;;5044856;28;20704;-76
2022/12/19 01:48:53;;;;;;;34.63;14.73;;;-3.40;99.90;;;;;;5041158;28;20241;-77
2022/12/19 01:51:44;;;;;;;39.77;15.60;;;-3.30;99.90;;;;;;5042819;28;20219;-78
2022/12/19 01:54:34;;;;;;;36.80;15.07;;;-3.40;99.90;;;;;;5042773;28;20220;-76
2022/12/19 01:57:23;;;;;;;37.10;15.23;;;-3.30;99.90;;;;;;5054509;28;20217;-74
2022/12/19 02:00:15;;;;;;;34.97;15.17;;;-3.40;99.90;;;;;;5045407;28;20221;-75
2022/12/19 02:03:09;;;;;;;38.57;16.43;;;-3.30;99.90;;;;;;5058117;28;20307;-76
2022/12/19 02:06:06;;;;;;;42.83;17.07;;;-3.40;99.90;;;;;;5046682;28;20747;-76
2022/12/19 02:08:56;;;;;;;42.23;16.67;;;-3.40;99.90;;;;;;5058545;28;20248;-76
2022/12/19 02:11:45;;;;;;;43.60;15.97;;;-3.60;99.90;;;;;;5045226;28;20647;-75
2022/12/19 02:14:34;;;;;;;40.20;17.30;;;-3.40;99.90;;;;;;5042887;28;20228;-76
2022/12/19 02:17:34;;;;;;;39.53;16.43;;;-3.70;99.90;;;;;;5041653;28;20220;-75
2022/12/19 02:21:09;;;;;;;42.27;17.20;;;-3.70;99.90;;;;;;5046082;28;20217;-75
2022/12/19 02:24:38;;;;;;;43.00;17.23;;;-3.50;99.90;;;;;;5036677;28;20599;-76
2022/12/19 02:28:03;;;;;;;43.33;16.57;;;-3.60;99.90;;;;;;5041237;28;20216;-76
2022/12/19 02:31:05;;;;;;;38.13;15.60;;;-3.70;99.90;;;;;;5040394;28;20750;-75
2022/12/19 02:34:13;;;;;;;35.50;15.03;;;-3.50;99.90;;;;;;5035481;28;21101;-76
2022/12/19 02:37:19;;;;;;;37.43;15.50;;;-3.60;99.90;;;;;;5042442;28;20268;-74
2022/12/19 02:40:14;;;;;;;36.90;14.50;;;-3.50;99.90;;;;;;5058053;28;20247;-77
2022/12/19 02:43:06;;;;;;;34.77;15.07;;;-3.60;99.90;;;;;;5042448;28;20221;-75
2022/12/19 02:45:59;;;;;;;40.07;14.47;;;-3.70;99.90;;;;;;5038016;28;20731;-76
2022/12/19 02:48:49;;;;;;;35.30;15.37;;;-3.70;99.90;;;;;;5047960;28;20244;-75
2022/12/19 02:51:37;;;;;;;41.10;15.43;;;-3.80;99.90;;;;;;5046575;28;20221;-75
2022/12/19 02:54:26;;;;;;;33.37;14.40;;;-3.70;99.90;;;;;;5045146;28;20221;-76
2022/12/19 02:57:24;;;;;;;38.17;15.53;;;-3.80;99.90;;;;;;5040922;28;20235;-76
2022/12/19 03:00:20;;;;;;;36.47;15.50;;;-3.90;99.90;;;;;;5056508;28;20220;-76
2022/12/19 03:03:17;;;;;;;38.80;16.30;;;-3.80;99.90;;;;;;5045257;28;20227;-75
2022/12/19 03:06:15;;;;;;;39.00;14.63;;;-3.90;99.90;;;;;;5054093;28;20228;-76
2022/12/19 03:09:17;;;;;;;38.23;15.03;;;-4.00;99.90;;;;;;5037900;28;20204;-77
2022/12/19 03:12:11;;;;;;;37.77;15.73;;;-4.00;99.90;;;;;;5038371;28;20415;-76
2022/12/19 03:15:07;;;;;;;37.00;15.33;;;-4.10;99.90;;;;;;5047882;28;20235;-74
2022/12/19 03:17:57;;;;;;;39.63;15.30;;;-4.10;99.90;;;;;;5034569;28;20217;-76
2022/12/19 03:20:50;;;;;;;36.57;14.93;;;-4.10;99.90;;;;;;5053734;28;20232;-76
2022/12/19 03:23:40;;;;;;;39.70;16.20;;;-4.10;99.90;;;;;;5051804;28;20685;-75
2022/12/19 03:26:35;;;;;;;43.40;17.27;;;-4.10;99.90;;;;;;5040042;28;20225;-76
2022/12/19 03:29:30;;;;;;;36.37;15.80;;;-4.10;99.90;;;;;;5040254;28;20224;-75
2022/12/19 03:32:21;;;;;;;38.60;15.67;;;-4.20;99.90;;;;;;5036839;28;20720;-76
2022/12/19 03:35:15;;;;;;;34.67;15.83;;;-4.20;99.90;;;;;;5057607;28;20220;-76
2022/12/19 03:38:07;;;;;;;36.73;15.73;;;-4.20;99.90;;;;;;5039269;28;20216;-76
2022/12/19 03:40:56;;;;;;;34.77;15.57;;;-4.30;99.90;;;;;;5045921;28;20224;-76
2022/12/19 03:43:45;;;;;;;36.27;15.37;;;-4.20;99.90;;;;;;5055426;28;20305;-76
2022/12/19 03:46:39;;;;;;;36.60;14.83;;;-4.30;99.90;;;;;;5036041;28;20990;-76
2022/12/19 03:49:28;;;;;;;38.27;15.53;;;-4.20;99.90;;;;;;5040584;28;20219;-77
2022/12/19 03:52:24;;;;;;;35.60;14.77;;;-4.30;99.90;;;;;;5038454;28;20223;-76
2022/12/19 03:55:18;;;;;;;38.60;16.07;;;-4.20;99.90;;;;;;5051088;28;20226;-77
2022/12/19 03:58:11;;;;;;;38.10;16.10;;;-4.30;99.90;;;;;;5054246;28;20215;-76
2022/12/19 04:01:02;;;;;;;37.40;15.03;;;-4.40;99.90;;;;;;5044122;28;20222;-76
2022/12/19 04:03:52;;;;;;;39.83;16.23;;;-4.50;99.90;;;;;;5053491;28;20327;-77
2022/12/19 04:06:43;;;;;;;38.97;15.97;;;-4.40;99.90;;;;;;5047489;28;20231;-77
2022/12/19 04:09:34;;;;;;;44.47;16.63;;;-4.50;99.90;;;;;;5056475;28;20225;-77
2022/12/19 04:12:31;;;;;;;41.60;16.77;;;-4.50;99.90;;;;;;5037298;28;20216;-77
2022/12/19 04:15:23;;;;;;;39.67;15.17;;;-4.70;99.90;;;;;;5043543;28;20702;-77
2022/12/19 04:18:14;;;;;;;42.63;15.93;;;-4.70;99.90;;;;;;5054072;28;20833;-78
2022/12/19 04:21:08;;;;;;;37.83;13.83;;;-4.40;99.90;;;;;;5059525;28;20235;-78
2022/12/19 04:24:02;;;;;;;36.27;15.73;;;-4.60;99.90;;;;;;5042893;28;20220;-77
2022/12/19 04:26:54;;;;;;;41.10;14.70;;;-4.80;99.90;;;;;;5059595;28;20221;-78
2022/12/19 04:29:44;;;;;;;42.20;15.30;;;-4.80;99.90;;;;;;5042328;28;20220;-77
2022/12/19 04:32:35;;;;;;;38.60;15.53;;;-4.70;99.90;;;;;;5060331;28;20231;-77
2022/12/19 04:35:24;;;;;;;38.10;15.83;;;-4.80;99.90;;;;;;5056851;28;20629;-77
2022/12/19 04:38:12;;;;;;;38.50;15.97;;;-4.70;99.90;;;;;;5040658;28;20213;-75
2022/12/19 04:41:01;;;;;;;38.47;15.17;;;-4.90;99.90;;;;;;5040882;28;20216;-75
2022/12/19 04:43:50;;;;;;;39.53;15.17;;;-5.00;99.90;;;;;;5044187;28;20224;-76
2022/12/19 04:46:40;;;;;;;41.53;15.63;;;-5.10;99.90;;;;;;5042483;28;20757;-75
2022/12/19 04:49:29;;;;;;;37.63;14.73;;;-4.90;99.90;;;;;;5043401;28;20382;-74
2022/12/19 04:52:18;;;;;;;39.10;15.43;;;-5.20;99.90;;;;;;5057537;28;20223;-74
2022/12/19 04:55:08;;;;;;;35.47;15.47;;;-5.10;99.90;;;;;;5052904;28;20232;-72
2022/12/19 04:57:57;;;;;;;37.90;15.27;;;-5.20;99.90;;;;;;5053231;28;20212;-75
2022/12/19 05:00:45;;;;;;;41.60;15.80;;;-5.20;99.90;;;;;;5057858;28;20260;-75
2022/12/19 05:03:36;;;;;;;40.13;15.43;;;-5.30;99.90;;;;;;5044554;28;20243;-74
2022/12/19 05:06:25;;;;;;;39.03;15.47;;;-5.30;99.90;;;;;;5044047;28;20235;-74
2022/12/19 05:09:14;;;;;;;41.23;16.50;;;-5.30;99.90;;;;;;5041022;28;20353;-74
2022/12/19 05:12:02;;;;;;;38.10;16.00;;;-5.30;99.90;;;;;;5057885;28;20228;-73
2022/12/19 05:14:51;;;;;;;41.87;16.47;;;-5.20;99.90;;;;;;5057834;28;20227;-75
2022/12/19 05:17:41;;;;;;;42.73;16.27;;;-5.40;99.90;;;;;;5039551;28;20228;-75
2022/12/19 05:20:30;;;;;;;47.27;17.50;;;-5.30;99.90;;;;;;5050757;28;20220;-72
2022/12/19 05:23:20;;;;;;;36.97;14.50;;;-5.30;99.90;;;;;;5045110;28;20224;-74
2022/12/19 05:26:10;;;;;;;41.77;16.30;;;-5.40;99.90;;;;;;5056505;28;20240;-77
2022/12/19 05:28:59;;;;;;;42.33;16.27;;;-5.40;99.90;;;;;;5043750;28;20232;-73
2022/12/19 05:31:48;;;;;;;43.20;17.10;;;-5.40;99.90;;;;;;5045537;28;20230;-77
2022/12/19 05:34:36;;;;;;;43.87;17.60;;;-5.50;99.90;;;;;;5058713;28;20230;-77
2022/12/19 05:37:26;;;;;;;44.27;17.27;;;-5.50;99.90;;;;;;5043620;28;20236;-76
2022/12/19 05:40:15;;;;;;;46.37;17.90;;;-5.50;99.90;;;;;;5044640;28;20220;-76
2022/12/19 05:43:04;;;;;;;44.40;17.10;;;-5.40;99.90;;;;;;5039251;28;20246;-76
2022/12/19 05:45:56;;;;;;;42.67;17.20;;;-5.60;99.90;;;;;;5056289;28;20225;-77
2022/12/19 05:48:45;;;;;;;44.13;17.73;;;-5.80;99.90;;;;;;5057291;28;22612;-77
2022/12/19 05:51:34;;;;;;;43.53;17.27;;;-5.80;99.90;;;;;;5043362;28;22599;-76
2022/12/19 05:54:24;;;;;;;46.47;17.30;;;-5.90;99.90;;;;;;5044043;28;20219;-76
2022/12/19 05:57:12;;;;;;;41.47;16.63;;;-5.80;99.90;;;;;;5055029;28;20220;-76
2022/12/19 06:00:01;;;;;;;40.20;17.33;;;-5.70;99.90;;;;;;5058715;28;20227;-77
2022/12/19 06:03:02;;;;;;;43.43;16.37;;;-5.80;99.90;;;;;;5055194;28;20317;-78
2022/12/19 06:05:51;;;;;;;44.10;17.03;;;-5.90;99.90;;;;;;5030407;28;20875;-77
2022/12/19 06:08:40;;;;;;;47.17;18.50;;;-5.90;99.90;;;;;;5035413;28;20314;-76
2022/12/19 06:11:30;;;;;;;40.77;15.37;;;-5.80;99.90;;;;;;5040638;28;20965;-75
2022/12/19 06:14:19;;;;;;;46.60;16.60;;;-5.90;99.90;;;;;;5043149;28;20213;-76
2022/12/19 06:17:08;;;;;;;46.47;17.33;;;-5.80;99.90;;;;;;5058310;28;20228;-78
2022/12/19 06:19:56;;;;;;;45.53;17.53;;;-5.80;99.90;;;;;;5057476;28;20231;-77
2022/12/19 06:22:45;;;;;;;48.67;16.93;;;-5.90;99.90;;;;;;5038790;28;20230;-76
2022/12/19 06:25:34;;;;;;;44.33;17.77;;;-5.80;99.90;;;;;;5058975;28;20936;-78
2022/12/19 06:28:24;;;;;;;44.00;16.33;;;-5.60;99.90;;;;;;5055385;28;20226;-77
2022/12/19 06:31:13;;;;;;;45.03;16.57;;;-5.70;99.90;;;;;;5054359;28;20228;-77
2022/12/19 06:34:02;;;;;;;48.50;16.97;;;-5.70;99.90;;;;;;5055691;28;20243;-77
2022/12/19 06:36:54;;;;;;;44.90;18.60;;;-5.80;99.90;;;;;;5039594;28;20231;-76
2022/12/19 06:39:42;;;;;;;42.20;17.57;;;-5.80;99.90;;;;;;5055897;28;20228;-77
2022/12/19 06:42:30;;;;;;;47.57;17.27;;;-5.80;99.90;;;;;;5041444;28;20228;-75
2022/12/19 06:45:20;;;;;;;46.43;17.07;;;-5.80;99.90;;;;;;5045883;28;20216;-75
2022/12/19 06:48:09;;;;;;;47.00;17.87;;;-5.70;99.90;;;;;;5050496;28;20227;-76
2022/12/19 06:50:57;;;;;;;43.30;17.17;;;-5.70;99.90;;;;;;5036609;28;20229;-77
2022/12/19 06:53:46;;;;;;;47.83;17.27;;;-5.80;99.90;;;;;;5046071;28;20628;-77
2022/12/19 06:56:36;;;;;;;50.27;19.10;;;-5.60;99.90;;;;;;5043127;28;20227;-77
2022/12/19 06:59:24;;;;;;;46.87;17.13;;;-5.80;99.90;;;;;;5042269;28;20245;-75
2022/12/19 07:02:26;;;;;;;48.10;17.97;;;-5.80;99.90;;;;;;5057414;28;20224;-76
2022/12/19 07:05:15;;;;;;;45.33;17.80;;;-5.80;99.90;;;;;;5051961;28;20591;-78
2022/12/19 07:08:04;;;;;;;45.47;17.17;;;-5.70;99.90;;;;;;5039961;28;20234;-74
2022/12/19 07:10:53;;;;;;;46.73;18.57;;;-5.80;99.90;;;;;;5040776;28;20713;-77
2022/12/19 07:13:42;;;;;;;43.53;18.27;;;-5.70;99.90;;;;;;5043903;28;20216;-77
2022/12/19 07:16:31;;;;;;;49.13;18.07;;;-5.70;99.90;;;;;;5052838;28;20224;-78
2022/12/19 07:19:22;;;;;;;41.63;17.23;;;-5.80;99.90;;;;;;5041067;28;20219;-80
2022/12/19 07:22:11;;;;;;;48.53;18.30;;;-5.80;99.90;;;;;;5054761;28;20236;-77
2022/12/19 07:25:01;;;;;;;50.83;19.30;;;-5.80;99.90;;;;;;5038912;28;20234;-78
2022/12/19 07:27:50;;;;;;;45.60;17.97;;;-5.70;99.90;;;;;;5041606;28;20212;-74
2022/12/19 07:30:39;;;;;;;48.47;18.37;;;-5.60;99.90;;;;;;5036574;28;20231;-81
2022/12/19 07:33:27;;;;;;;42.73;17.97;;;-5.60;99.90;;;;;;5041293;28;20768;-76
2022/12/19 07:36:18;;;;;;;47.40;17.10;;;-5.60;99.90;;;;;;5041534;28;20218;-76
2022/12/19 07:39:06;;;;;;;42.43;17.70;;;-5.60;99.90;;;;;;5043157;28;20277;-78
2022/12/19 07:41:55;;;;;;;44.03;17.83;;;-5.60;99.90;;;;;;5031315;28;20219;-75
2022/12/19 07:44:53;;;;;;;46.53;17.77;;;-5.50;99.90;;;;;;5033187;28;20222;-74
2022/12/19 07:47:41;;;;;;;50.77;17.70;;;-5.60;99.90;;;;;;5040554;28;20227;-74
2022/12/19 07:50:31;;;;;;;56.20;18.20;;;-5.50;99.90;;;;;;5037814;28;20314;-74
2022/12/19 07:53:21;;;;;;;45.23;17.23;;;-5.60;99.90;;;;;;5041019;28;20736;-76
2022/12/19 07:56:10;;;;;;;44.70;18.07;;;-5.50;99.90;;;;;;5041991;28;20711;-76
2022/12/19 07:58:58;;;;;;;47.37;17.77;;;-5.50;99.90;;;;;;5053685;28;20677;-75
2022/12/19 08:01:48;;;;;;;43.43;17.20;;;-5.50;99.90;;;;;;5044855;28;20220;-75
2022/12/19 08:04:37;;;;;;;46.67;16.27;;;-5.50;99.90;;;;;;5039380;28;20338;-75
2022/12/19 08:07:26;;;;;;;54.10;18.40;;;-5.50;99.90;;;;;;5056520;28;20236;-75
2022/12/19 08:10:16;;;;;;;44.00;17.13;;;-5.40;99.90;;;;;;5055399;28;20233;-76
2022/12/19 08:13:05;;;;;;;42.53;16.50;;;-5.30;99.90;;;;;;5044385;28;20309;-75
2022/12/19 08:15:54;;;;;;;45.10;16.93;;;-5.50;99.90;;;;;;5037127;28;20562;-74
2022/12/19 08:18:42;;;;;;;45.83;17.10;;;-5.40;99.90;;;;;;5026920;28;20766;-76
2022/12/19 08:21:31;;;;;;;47.10;17.87;;;-5.30;99.90;;;;;;5037820;28;20223;-77
2022/12/19 08:24:20;;;;;;;46.23;17.77;;;-5.30;99.90;;;;;;5054680;28;20226;-77
2022/12/19 08:27:10;;;;;;;48.57;18.47;;;-5.20;99.90;;;;;;5041198;28;20836;-75
2022/12/19 08:29:59;;;;;;;51.07;19.40;;;-5.30;99.90;;;;;;5052981;28;20212;-77
2022/12/19 08:32:47;;;;;;;47.03;18.20;;;-5.30;99.90;;;;;;5041565;28;20718;-77
2022/12/19 08:35:36;;;;;;;52.43;19.47;;;-5.20;99.90;;;;;;5052339;28;20221;-76
2022/12/19 08:38:25;;;;;;;48.43;18.97;;;-5.20;99.90;;;;;;5052735;28;20237;-76
2022/12/19 08:41:14;;;;;;;46.53;19.07;;;-5.40;99.90;;;;;;5040662;28;20836;-77
2022/12/19 08:44:04;;;;;;;44.10;17.97;;;-5.50;99.90;;;;;;5038612;28;20753;-77
2022/12/19 08:46:57;;;;;;;49.67;19.10;;;-5.50;99.90;;;;;;5054210;28;20222;-76
2022/12/19 08:49:45;;;;;;;51.43;19.90;;;-5.40;99.90;;;;;;5052640;28;20996;-77
2022/12/19 08:52:34;;;;;;;46.60;19.20;;;-5.20;99.90;;;;;;5041526;28;20931;-76
2022/12/19 08:55:22;;;;;;;46.73;17.83;;;-5.30;99.90;;;;;;5056247;28;20228;-76
2022/12/19 08:58:14;;;;;;;49.73;17.23;;;-5.20;99.90;;;;;;5053779;28;20223;-76
2022/12/19 09:01:07;;;;;;;50.13;18.53;;;-5.10;99.90;;;;;;5038569;28;20217;-77
2022/12/19 09:03:58;;;;;;;42.90;18.27;;;-5.10;99.90;;;;;;5051412;28;20233;-74
2022/12/19 09:07:07;;;;;;;46.40;17.47;;;-5.20;99.90;;;;;;5051265;28;20901;-76
2022/12/19 09:09:56;;;;;;;50.17;18.13;;;-5.20;99.90;;;;;;5060090;28;20275;-77
2022/12/19 09:12:44;;;;;;;48.37;18.60;;;-5.00;99.90;;;;;;5041953;28;20219;-75
2022/12/19 09:15:37;;;;;;;47.90;17.90;;;-4.90;99.90;;;;;;5055363;28;20219;-76
2022/12/19 09:18:31;;;;;;;50.07;18.63;;;-4.80;99.90;;;;;;5062378;28;20218;-72
2022/12/19 09:21:25;;;;;;;43.43;17.53;;;-4.80;99.90;;;;;;5037960;28;20224;-75
2022/12/19 09:24:14;;;;;;;47.37;18.90;;;-4.90;99.90;;;;;;5041826;28;20434;-75
2022/12/19 09:27:03;;;;;;;50.47;18.50;;;-4.80;99.90;;;;;;5058548;28;20571;-75
2022/12/19 09:29:52;;;;;;;49.40;19.00;;;-4.70;99.90;;;;;;5041466;28;20225;-75
2022/12/19 09:32:41;;;;;;;44.83;18.20;;;-4.60;99.90;;;;;;5060111;28;20237;-76
2022/12/19 09:35:31;;;;;;;39.23;17.00;;;-4.50;99.90;;;;;;5043773;28;20773;-75
2022/12/19 09:38:21;;;;;;;53.23;19.40;;;-4.50;99.90;;;;;;5057205;28;20882;-75
2022/12/19 09:41:35;;;;;;;46.50;19.20;;;-4.50;99.90;;;;;;5039630;28;20224;-75
2022/12/19 09:44:40;;;;;;;42.90;17.50;;;-4.50;99.90;;;;;;5055834;28;20707;-75
2022/12/19 09:47:31;;;;;;;44.07;17.93;;;-4.40;99.90;;;;;;5052718;28;20708;-75
2022/12/19 09:50:30;;;;;;;43.90;18.73;;;-4.50;99.90;;;;;;5036016;28;20224;-79
2022/12/19 09:53:25;;;;;;;47.60;18.97;;;-4.40;99.90;;;;;;5039044;28;20227;-78
2022/12/19 09:56:15;;;;;;;46.50;19.13;;;-4.50;99.90;;;;;;5054252;28;20232;-76
2022/12/19 09:59:12;;;;;;;42.00;17.30;;;-4.50;99.90;;;;;;5037171;28;20229;-74
2022/12/19 10:02:15;;;;;;;42.30;16.97;;;-4.50;99.90;;;;;;5053103;28;20230;-76
2022/12/19 10:05:14;;;;;;;43.83;18.00;;;-4.50;99.90;;;;;;5052596;28;20239;-75
2022/12/19 10:08:30;;;;;;;40.80;16.80;;;-4.40;99.90;;;;;;5037869;28;20219;-76
2022/12/19 10:11:36;;;;;;;44.60;17.37;;;-4.30;99.90;;;;;;5049061;28;20224;-75
2022/12/19 10:14:56;;;;;;;43.67;16.57;;;-4.40;99.90;;;;;;5052636;28;20228;-76
2022/12/19 10:17:58;;;;;;;41.53;16.60;;;-4.40;99.90;;;;;;5038560;28;20231;-75
2022/12/19 10:20:53;;;;;;;42.80;16.47;;;-4.30;99.90;;;;;;5043108;28;20243;-76
2022/12/19 10:23:59;;;;;;;45.13;16.07;;;-4.20;99.90;;;;;;5043129;28;20220;-76
2022/12/19 10:26:51;;;;;;;45.03;16.13;;;-4.10;99.90;;;;;;5040075;28;20228;-77
2022/12/19 10:29:53;;;;;;;40.87;15.73;;;-4.20;99.90;;;;;;5054754;28;20298;-76
2022/12/19 10:32:56;;;;;;;40.70;17.20;;;-4.20;99.90;;;;;;5055209;28;20220;-75
2022/12/19 10:35:48;;;;;;;41.10;16.47;;;-4.10;99.90;;;;;;5043826;28;20397;-76
2022/12/19 10:38:43;;;;;;;43.47;17.07;;;-4.00;99.90;;;;;;5037563;28;20410;-77
2022/12/19 10:41:43;;;;;;;44.67;17.10;;;-4.00;99.90;;;;;;5041746;28;20227;-74
2022/12/19 10:44:38;;;;;;;37.63;14.87;;;-3.90;99.90;;;;;;5057161;28;20311;-76
2022/12/19 10:47:27;;;;;;;43.67;17.03;;;-3.90;99.90;;;;;;5041086;28;21022;-75
2022/12/19 10:50:21;;;;;;;41.03;17.13;;;-3.80;99.90;;;;;;5038670;28;20225;-75
2022/12/19 10:53:12;;;;;;;42.83;17.20;;;-3.90;99.90;;;;;;5054964;28;20223;-75
2022/12/19 10:56:02;;;;;;;49.77;16.67;;;-3.70;99.90;;;;;;5040576;28;20626;-75
2022/12/19 10:58:56;;;;;;;39.93;16.43;;;-3.70;99.90;;;;;;5050998;28;20243;-76
2022/12/19 11:01:46;;;;;;;45.27;16.70;;;-3.60;99.90;;;;;;5041310;28;20224;-76
2022/12/19 11:04:48;;;;;;;41.43;16.47;;;-3.60;99.90;;;;;;5054376;28;20213;-74
2022/12/19 11:07:37;;;;;;;36.77;14.23;;;-3.60;99.90;;;;;;5040032;28;20238;-76
2022/12/19 11:10:38;;;;;;;38.13;14.93;;;-3.50;99.90;;;;;;5036614;28;20224;-76
2022/12/19 11:13:48;;;;;;;42.37;16.17;;;-3.50;99.90;;;;;;5040523;28;20216;-76
2022/12/19 11:16:58;;;;;;;33.70;14.90;;;-3.40;99.90;;;;;;5040902;28;20216;-76
2022/12/19 11:20:14;;;;;;;35.00;16.30;;;-3.40;99.90;;;;;;5056792;28;20216;-76
2022/12/19 11:23:24;;;;;;;36.03;15.63;;;-3.40;99.90;;;;;;5033964;28;20224;-74
2022/12/19 11:26:36;;;;;;;36.80;15.80;;;-3.30;99.90;;;;;;5054683;28;20541;-79
2022/12/19 11:29:48;;;;;;;39.23;15.97;;;-3.30;99.90;;;;;;5044660;28;20212;-75
2022/12/19 11:33:14;;;;;;;37.67;15.47;;;-3.40;99.90;;;;;;5054007;28;20217;-75
2022/12/19 11:36:04;;;;;;;41.53;16.00;;;-3.30;99.90;;;;;;5038207;28;20231;-76
2022/12/19 11:38:54;;;;;;;37.83;16.00;;;-3.30;99.90;;;;;;5038360;28;20231;-76
2022/12/19 11:41:49;;;;;;;37.10;15.47;;;-3.30;99.90;;;;;;5038340;28;20285;-76
2022/12/19 11:44:44;;;;;;;39.57;15.70;;;-3.40;99.90;;;;;;5043385;28;20231;-77
2022/12/19 11:47:40;;;;;;;35.13;15.53;;;-3.20;99.90;;;;;;5041265;28;20727;-76
2022/12/19 11:50:34;;;;;;;38.70;16.07;;;-3.10;99.90;;;;;;5040664;28;20599;-77
2022/12/19 11:53:29;;;;;;;42.57;15.20;;;-3.10;99.90;;;;;;5036906;28;20224;-76
2022/12/19 11:56:23;;;;;;;39.17;16.80;;;-3.00;99.90;;;;;;5059008;28;20282;-78
2022/12/19 11:59:17;;;;;;;43.57;16.77;;;-3.10;99.90;;;;;;5058395;28;20224;-77
2022/12/19 12:02:37;;;;;;;41.40;16.53;;;-3.00;99.90;;;;;;5042771;28;20224;-79
2022/12/19 12:05:43;;;;;;;38.70;15.43;;;-2.90;99.90;;;;;;5059429;28;20290;-76
2022/12/19 12:08:44;;;;;;;35.77;15.83;;;-2.90;99.90;;;;;;5056300;28;20217;-77
2022/12/19 12:12:01;;;;;;;38.20;15.23;;;-3.00;99.90;;;;;;5055829;28;20222;-76
2022/12/19 12:15:28;;;;;;;41.80;16.40;;;-2.90;99.90;;;;;;5052232;28;20208;-76
2022/12/19 12:18:51;;;;;;;43.10;14.93;;;-2.90;99.90;;;;;;5052568;28;20228;-76
2022/12/19 12:22:13;;;;;;;40.30;15.93;;;-3.00;99.90;;;;;;5052376;28;20229;-75
2022/12/19 12:25:37;;;;;;;37.37;15.80;;;-3.00;99.90;;;;;;5052773;28;20249;-74
2022/12/19 12:29:05;;;;;;;39.03;15.17;;;-3.00;99.90;;;;;;5051359;28;20212;-75
2022/12/19 12:32:25;;;;;;;39.13;14.83;;;-2.90;99.90;;;;;;5045624;28;20212;-75
2022/12/19 12:35:36;;;;;;;39.70;15.33;;;-3.00;99.90;;;;;;5050399;28;20225;-75
2022/12/19 12:39:00;;;;;;;40.47;15.43;;;-3.00;99.90;;;;;;5035787;28;20225;-75
2022/12/19 12:42:05;;;;;;;40.70;14.87;;;-3.10;99.90;;;;;;5060060;28;20595;-74
2022/12/19 12:44:56;;;;;;;38.53;15.70;;;-3.10;99.90;;;;;;5031015;28;20226;-75
2022/12/19 12:47:48;;;;;;;41.87;16.23;;;-3.10;99.90;;;;;;5036316;28;20224;-76
2022/12/19 12:50:41;;;;;;;38.50;16.30;;;-3.00;99.90;;;;;;5058665;28;20231;-75
2022/12/19 12:53:34;;;;;;;35.90;15.90;;;-3.00;99.90;;;;;;5040235;28;20271;-76
2022/12/19 12:56:25;;;;;;;35.87;15.13;;;-2.80;99.90;;;;;;5042279;28;20212;-75
2022/12/19 12:59:24;;;;;;;39.80;16.07;;;-2.90;99.90;;;;;;5044809;28;20213;-77
2022/12/19 13:02:17;;;;;;;41.43;16.87;;;-3.00;99.90;;;;;;5058782;28;20214;-74
2022/12/19 13:05:24;;;;;;;39.07;16.63;;;-3.00;99.90;;;;;;5037933;28;20427;-75
2022/12/19 13:08:46;;;;;;;41.73;17.53;;;-3.00;99.90;;;;;;5044531;28;20296;-75
2022/12/19 13:14:48;;;;;;;39.43;16.30;;;-2.80;99.90;;;;;;5058624;28;20221;-75
2022/12/19 13:18:07;;;;;;;43.00;18.43;;;-2.90;99.90;;;;;;5044402;28;20217;-76
2022/12/19 13:20:57;;;;;;;40.97;17.63;;;-3.00;99.90;;;;;;5061131;28;20807;-77
2022/12/19 13:23:48;;;;;;;44.10;17.33;;;-3.00;99.90;;;;;;5047315;28;20225;-76
2022/12/19 13:26:51;;;;;;;41.47;18.17;;;-3.10;99.90;;;;;;5057289;28;20229;-76
2022/12/19 13:30:03;;;;;;;45.67;17.80;;;-3.10;99.90;;;;;;5060667;28;20224;-77
2022/12/19 13:33:09;;;;;;;44.33;18.07;;;-3.20;99.90;;;;;;5063635;28;20223;-75
2022/12/19 13:35:58;;;;;;;45.07;17.60;;;-3.20;99.90;;;;;;5058489;28;20230;-76
2022/12/19 13:39:32;;;;;;;37.33;16.00;;;-3.30;99.90;;;;;;5051306;28;20223;-77
2022/12/19 13:46:03;;;;;;;40.93;18.07;;;-3.20;99.90;;;;;;5052901;28;20232;-75
2022/12/19 13:48:55;;;;;;;42.37;17.90;;;-3.30;99.90;;;;;;5040180;28;20231;-75
2022/12/19 13:51:49;;;;;;;42.43;18.00;;;-3.30;99.90;;;;;;5033905;28;20218;-75
2022/12/19 13:54:46;;;;;;;48.57;18.67;;;-3.40;99.90;;;;;;5041833;28;22011;-77
2022/12/19 13:57:38;;;;;;;42.43;18.03;;;-3.30;99.90;;;;;;5062951;28;20212;-82
2022/12/19 14:00:36;;;;;;;47.33;17.93;;;-3.50;99.90;;;;;;5045609;28;20229;-81
2022/12/19 14:03:34;;;;;;;43.43;18.53;;;-3.40;99.90;;;;;;5042558;28;20219;-81
2022/12/19 14:06:26;;;;;;;48.33;18.67;;;-3.40;99.90;;;;;;5048283;28;20222;-82
2022/12/19 14:09:23;;;;;;;43.87;18.00;;;-3.50;99.90;;;;;;5057075;28;20218;-82
2022/12/19 14:16:06;;;;;;;43.77;17.77;;;-3.40;99.90;;;;;;5063037;28;20212;-79
2022/12/19 14:18:56;;;;;;;49.13;18.63;;;-3.40;99.90;;;;;;5064886;28;20354;-78
2022/12/19 14:21:44;;;;;;;45.70;19.33;;;-3.40;99.90;;;;;;5044890;28;20842;-80
2022/12/19 14:24:55;;;;;;;37.27;16.67;;;-3.50;99.90;;;;;;5062131;28;20234;-82
2022/12/19 14:28:06;;;;;;;42.87;17.33;;;-3.40;99.90;;;;;;5065415;28;20319;-78
2022/12/19 14:31:18;;;;;;;41.73;17.10;;;-3.50;99.90;;;;;;5056279;28;20220;-79
2022/12/19 14:34:09;;;;;;;44.43;17.10;;;-3.50;99.90;;;;;;5052120;28;20591;-79
2022/12/19 14:37:29;;;;;;;42.53;17.47;;;-3.50;99.90;;;;;;5039211;28;20220;-79
2022/12/19 14:40:41;;;;;;;43.90;17.60;;;-3.40;99.90;;;;;;5044821;28;20349;-79
2022/12/19 14:43:55;;;;;;;44.23;16.80;;;-3.40;99.90;;;;;;5038002;28;20227;-78
2022/12/19 14:47:11;;;;;;;46.17;17.23;;;-3.60;99.90;;;;;;5042858;28;20220;-78
2022/12/19 14:50:29;;;;;;;48.17;18.60;;;-3.50;99.90;;;;;;5058413;28;20219;-79
2022/12/19 14:53:38;;;;;;;42.63;17.80;;;-3.40;99.90;;;;;;5061945;28;20219;-79
2022/12/19 14:56:50;;;;;;;49.57;18.77;;;-3.40;99.90;;;;;;5033542;28;20224;-79
2022/12/19 14:59:48;;;;;;;46.10;17.23;;;-3.50;99.90;;;;;;5043683;28;20255;-79
2022/12/19 15:02:38;;;;;;;40.03;16.87;;;-3.50;99.90;;;;;;5031600;28;21828;-80